sensor_id;sensor_type;location;lat;lon;timestamp;P1;durP1;ratioP1;P2;durP2;ratioP2
4208;SDS011;36320;48.860;2.380;2023-10-09T00:01:52;16.90;;;3.60;;
4208;SDS011;36320;48.860;2.380;2023-10-09T00:04:18;13.57;;;4.03;;
4208;SDS011;36320;48.860;2.380;2023-10-09T00:06:45;12.70;;;3.60;;
4208;SDS011;36320;48.860;2.380;2023-10-09T00:09:11;18.20;;;3.53;;
4208;SDS011;36320;48.860;2.380;2023-10-09T00:11:49;13.25;;;3.90;;
4208;SDS011;36320;48.860;2.380;2023-10-09T00:14:26;13.88;;;3.20;;
4208;SDS011;36320;48.860;2.380;2023-10-09T00:16:55;12.07;;;3.05;;
4208;SDS011;36320;48.860;2.380;2023-10-09T00:19:41;13.13;;;3.53;;
4208;SDS011;36320;48.860;2.380;2023-10-09T00:22:18;13.00;;;3.53;;
4208;SDS011;36320;48.860;2.380;2023-10-09T00:24:51;15.33;;;3.50;;
4208;SDS011;36320;48.860;2.380;2023-10-09T00:27:35;14.80;;;3.60;;
4208;SDS011;36320;48.860;2.380;2023-10-09T00:30:02;13.90;;;3.60;;
4208;SDS011;36320;48.860;2.380;2023-10-09T00:32:31;14.32;;;3.95;;
4208;SDS011;36320;48.860;2.380;2023-10-09T00:34:58;13.18;;;3.58;;
4208;SDS011;36320;48.860;2.380;2023-10-09T00:37:44;15.20;;;4.20;;
4208;SDS011;36320;48.860;2.380;2023-10-09T00:40:10;14.20;;;4.00;;
4208;SDS011;36320;48.860;2.380;2023-10-09T00:42:48;11.65;;;3.45;;
4208;SDS011;36320;48.860;2.380;2023-10-09T00:45:14;15.45;;;3.95;;
4208;SDS011;36320;48.860;2.380;2023-10-09T00:47:49;14.40;;;3.10;;
4208;SDS011;36320;48.860;2.380;2023-10-09T00:50:17;18.75;;;4.15;;
4208;SDS011;36320;48.860;2.380;2023-10-09T00:52:44;14.13;;;3.63;;
4208;SDS011;36320;48.860;2.380;2023-10-09T00:55:19;16.40;;;4.07;;
4208;SDS011;36320;48.860;2.380;2023-10-09T00:57:46;12.88;;;3.20;;
4208;SDS011;36320;48.860;2.380;2023-10-09T01:00:25;11.60;;;3.38;;
4208;SDS011;36320;48.860;2.380;2023-10-09T01:03:04;14.03;;;3.57;;
4208;SDS011;36320;48.860;2.380;2023-10-09T01:05:43;13.18;;;3.97;;
4208;SDS011;36320;48.860;2.380;2023-10-09T01:08:28;14.98;;;3.65;;
4208;SDS011;36320;48.860;2.380;2023-10-09T01:11:00;17.03;;;3.93;;
4208;SDS011;36320;48.860;2.380;2023-10-09T01:13:35;11.45;;;3.15;;
4208;SDS011;36320;48.860;2.380;2023-10-09T01:16:18;13.77;;;3.10;;
4208;SDS011;36320;48.860;2.380;2023-10-09T01:18:50;14.77;;;3.28;;
4208;SDS011;36320;48.860;2.380;2023-10-09T01:21:18;11.88;;;3.30;;
4208;SDS011;36320;48.860;2.380;2023-10-09T01:23:51;10.57;;;3.20;;
4208;SDS011;36320;48.860;2.380;2023-10-09T01:26:27;12.80;;;2.83;;
4208;SDS011;36320;48.860;2.380;2023-10-09T01:29:27;13.23;;;3.07;;
4208;SDS011;36320;48.860;2.380;2023-10-09T01:31:56;14.38;;;2.97;;
4208;SDS011;36320;48.860;2.380;2023-10-09T01:34:29;11.73;;;3.15;;
4208;SDS011;36320;48.860;2.380;2023-10-09T01:37:06;13.40;;;4.05;;
4208;SDS011;36320;48.860;2.380;2023-10-09T01:39:47;11.82;;;3.13;;
4208;SDS011;36320;48.860;2.380;2023-10-09T01:42:15;13.32;;;3.20;;
4208;SDS011;36320;48.860;2.380;2023-10-09T01:45:10;9.60;;;3.10;;
4208;SDS011;36320;48.860;2.380;2023-10-09T01:47:44;17.65;;;3.03;;
4208;SDS011;36320;48.860;2.380;2023-10-09T01:50:36;15.57;;;3.15;;
4208;SDS011;36320;48.860;2.380;2023-10-09T01:53:02;11.50;;;3.00;;
4208;SDS011;36320;48.860;2.380;2023-10-09T01:55:30;12.27;;;3.40;;
4208;SDS011;36320;48.860;2.380;2023-10-09T01:58:04;11.13;;;2.85;;
4208;SDS011;36320;48.860;2.380;2023-10-09T02:00:34;12.32;;;2.92;;
4208;SDS011;36320;48.860;2.380;2023-10-09T02:03:14;12.63;;;3.00;;
4208;SDS011;36320;48.860;2.380;2023-10-09T02:05:43;17.80;;;3.10;;
4208;SDS011;36320;48.860;2.380;2023-10-09T02:08:09;10.23;;;2.60;;
4208;SDS011;36320;48.860;2.380;2023-10-09T02:10:38;13.65;;;3.25;;
4208;SDS011;36320;48.860;2.380;2023-10-09T02:13:12;10.65;;;2.60;;
4208;SDS011;36320;48.860;2.380;2023-10-09T02:15:42;7.63;;;1.90;;
4208;SDS011;36320;48.860;2.380;2023-10-09T02:18:15;11.55;;;3.50;;
4208;SDS011;36320;48.860;2.380;2023-10-09T02:20:51;10.18;;;2.90;;
4208;SDS011;36320;48.860;2.380;2023-10-09T02:23:27;11.27;;;3.50;;
4208;SDS011;36320;48.860;2.380;2023-10-09T02:26:16;11.50;;;3.35;;
4208;SDS011;36320;48.860;2.380;2023-10-09T02:28:49;14.48;;;3.42;;
4208;SDS011;36320;48.860;2.380;2023-10-09T02:31:26;10.80;;;3.00;;
4208;SDS011;36320;48.860;2.380;2023-10-09T02:34:00;12.05;;;3.10;;
4208;SDS011;36320;48.860;2.380;2023-10-09T02:36:30;10.75;;;2.38;;
4208;SDS011;36320;48.860;2.380;2023-10-09T02:39:03;10.88;;;2.80;;
4208;SDS011;36320;48.860;2.380;2023-10-09T02:41:31;9.65;;;2.80;;
4208;SDS011;36320;48.860;2.380;2023-10-09T02:43:59;11.30;;;2.45;;
4208;SDS011;36320;48.860;2.380;2023-10-09T02:46:36;10.57;;;2.83;;
4208;SDS011;36320;48.860;2.380;2023-10-09T02:49:02;11.70;;;2.60;;
4208;SDS011;36320;48.860;2.380;2023-10-09T02:51:34;10.18;;;2.70;;
4208;SDS011;36320;48.860;2.380;2023-10-09T02:54:07;11.07;;;2.90;;
4208;SDS011;36320;48.860;2.380;2023-10-09T02:56:45;12.10;;;2.58;;
4208;SDS011;36320;48.860;2.380;2023-10-09T02:59:14;10.73;;;2.70;;
4208;SDS011;36320;48.860;2.380;2023-10-09T03:01:40;9.83;;;2.40;;
4208;SDS011;36320;48.860;2.380;2023-10-09T03:04:07;12.60;;;2.40;;
4208;SDS011;36320;48.860;2.380;2023-10-09T03:06:36;14.40;;;2.80;;
4208;SDS011;36320;48.860;2.380;2023-10-09T03:09:08;11.93;;;2.42;;
4208;SDS011;36320;48.860;2.380;2023-10-09T03:11:47;10.90;;;2.90;;
4208;SDS011;36320;48.860;2.380;2023-10-09T03:14:18;10.50;;;2.42;;
4208;SDS011;36320;48.860;2.380;2023-10-09T03:16:45;11.70;;;2.33;;
4208;SDS011;36320;48.860;2.380;2023-10-09T03:19:16;11.55;;;2.38;;
4208;SDS011;36320;48.860;2.380;2023-10-09T03:21:42;14.98;;;2.63;;
4208;SDS011;36320;48.860;2.380;2023-10-09T03:24:08;14.30;;;2.63;;
4208;SDS011;36320;48.860;2.380;2023-10-09T03:26:36;11.68;;;2.70;;
4208;SDS011;36320;48.860;2.380;2023-10-09T03:29:02;10.88;;;2.63;;
4208;SDS011;36320;48.860;2.380;2023-10-09T03:31:34;11.50;;;3.00;;
4208;SDS011;36320;48.860;2.380;2023-10-09T03:34:07;17.73;;;3.78;;
4208;SDS011;36320;48.860;2.380;2023-10-09T03:36:35;11.05;;;3.17;;
4208;SDS011;36320;48.860;2.380;2023-10-09T03:39:03;13.07;;;3.67;;
4208;SDS011;36320;48.860;2.380;2023-10-09T03:41:47;15.95;;;2.47;;
4208;SDS011;36320;48.860;2.380;2023-10-09T03:44:13;11.80;;;3.40;;
4208;SDS011;36320;48.860;2.380;2023-10-09T03:46:41;9.50;;;2.83;;
4208;SDS011;36320;48.860;2.380;2023-10-09T03:49:10;10.98;;;3.25;;
4208;SDS011;36320;48.860;2.380;2023-10-09T03:51:39;12.00;;;2.90;;
4208;SDS011;36320;48.860;2.380;2023-10-09T03:54:05;11.60;;;2.70;;
4208;SDS011;36320;48.860;2.380;2023-10-09T03:56:35;11.52;;;2.60;;
4208;SDS011;36320;48.860;2.380;2023-10-09T03:59:02;10.93;;;3.05;;
4208;SDS011;36320;48.860;2.380;2023-10-09T04:01:29;13.35;;;2.60;;
4208;SDS011;36320;48.860;2.380;2023-10-09T04:04:04;12.20;;;2.88;;
4208;SDS011;36320;48.860;2.380;2023-10-09T04:06:32;14.02;;;2.80;;
4208;SDS011;36320;48.860;2.380;2023-10-09T04:08:59;9.25;;;2.60;;
4208;SDS011;36320;48.860;2.380;2023-10-09T04:11:38;9.63;;;2.88;;
4208;SDS011;36320;48.860;2.380;2023-10-09T04:14:08;16.85;;;2.70;;
4208;SDS011;36320;48.860;2.380;2023-10-09T04:16:42;10.77;;;2.23;;
4208;SDS011;36320;48.860;2.380;2023-10-09T04:19:17;13.30;;;2.47;;
4208;SDS011;36320;48.860;2.380;2023-10-09T04:21:47;11.47;;;2.80;;
4208;SDS011;36320;48.860;2.380;2023-10-09T04:24:16;15.20;;;2.70;;
4208;SDS011;36320;48.860;2.380;2023-10-09T04:26:43;9.27;;;2.37;;
4208;SDS011;36320;48.860;2.380;2023-10-09T04:29:10;10.20;;;2.53;;
4208;SDS011;36320;48.860;2.380;2023-10-09T04:31:55;13.27;;;2.67;;
4208;SDS011;36320;48.860;2.380;2023-10-09T04:34:23;10.63;;;2.20;;
4208;SDS011;36320;48.860;2.380;2023-10-09T04:36:52;10.05;;;2.30;;
4208;SDS011;36320;48.860;2.380;2023-10-09T04:39:36;18.15;;;2.58;;
4208;SDS011;36320;48.860;2.380;2023-10-09T04:42:11;11.57;;;2.50;;
4208;SDS011;36320;48.860;2.380;2023-10-09T04:44:44;18.70;;;2.13;;
4208;SDS011;36320;48.860;2.380;2023-10-09T04:47:32;9.90;;;2.60;;
4208;SDS011;36320;48.860;2.380;2023-10-09T04:52:44;12.13;;;2.40;;
4208;SDS011;36320;48.860;2.380;2023-10-09T04:55:10;15.85;;;2.50;;
4208;SDS011;36320;48.860;2.380;2023-10-09T04:57:36;11.15;;;2.72;;
4208;SDS011;36320;48.860;2.380;2023-10-09T05:00:08;15.70;;;2.95;;
4208;SDS011;36320;48.860;2.380;2023-10-09T05:02:50;9.15;;;1.98;;
4208;SDS011;36320;48.860;2.380;2023-10-09T05:05:29;14.88;;;2.30;;
4208;SDS011;36320;48.860;2.380;2023-10-09T05:10:58;14.30;;;2.40;;
4208;SDS011;36320;48.860;2.380;2023-10-09T05:13:27;11.02;;;3.20;;
4208;SDS011;36320;48.860;2.380;2023-10-09T05:18:44;15.55;;;3.08;;
4208;SDS011;36320;48.860;2.380;2023-10-09T05:21:26;11.45;;;2.60;;
4208;SDS011;36320;48.860;2.380;2023-10-09T05:23:56;15.90;;;2.60;;
4208;SDS011;36320;48.860;2.380;2023-10-09T05:31:54;11.73;;;2.05;;
4208;SDS011;36320;48.860;2.380;2023-10-09T05:34:39;16.52;;;2.65;;
4208;SDS011;36320;48.860;2.380;2023-10-09T05:37:28;15.35;;;3.35;;
4208;SDS011;36320;48.860;2.380;2023-10-09T05:39:58;9.13;;;2.00;;
4208;SDS011;36320;48.860;2.380;2023-10-09T05:42:25;11.93;;;2.30;;
4208;SDS011;36320;48.860;2.380;2023-10-09T05:45:11;12.30;;;2.30;;
4208;SDS011;36320;48.860;2.380;2023-10-09T05:47:56;10.20;;;2.30;;
4208;SDS011;36320;48.860;2.380;2023-10-09T05:50:42;14.43;;;2.38;;
4208;SDS011;36320;48.860;2.380;2023-10-09T05:53:28;16.35;;;2.25;;
4208;SDS011;36320;48.860;2.380;2023-10-09T05:56:09;10.48;;;2.78;;
4208;SDS011;36320;48.860;2.380;2023-10-09T05:58:54;14.77;;;3.13;;
4208;SDS011;36320;48.860;2.380;2023-10-09T06:01:39;9.02;;;2.33;;
4208;SDS011;36320;48.860;2.380;2023-10-09T06:04:24;14.37;;;3.27;;
4208;SDS011;36320;48.860;2.380;2023-10-09T06:07:10;9.07;;;2.55;;
4208;SDS011;36320;48.860;2.380;2023-10-09T06:09:39;12.75;;;2.90;;
4208;SDS011;36320;48.860;2.380;2023-10-09T06:12:21;9.68;;;2.38;;
4208;SDS011;36320;48.860;2.380;2023-10-09T06:15:25;8.85;;;2.30;;
4208;SDS011;36320;48.860;2.380;2023-10-09T06:18:18;12.60;;;1.70;;
4208;SDS011;36320;48.860;2.380;2023-10-09T06:20:59;7.13;;;1.50;;
4208;SDS011;36320;48.860;2.380;2023-10-09T06:23:55;9.32;;;2.50;;
4208;SDS011;36320;48.860;2.380;2023-10-09T06:26:39;16.95;;;2.65;;
4208;SDS011;36320;48.860;2.380;2023-10-09T06:29:16;21.38;;;2.58;;
4208;SDS011;36320;48.860;2.380;2023-10-09T06:31:58;19.40;;;2.83;;
4208;SDS011;36320;48.860;2.380;2023-10-09T06:34:49;11.57;;;2.17;;
4208;SDS011;36320;48.860;2.380;2023-10-09T06:37:25;10.47;;;2.50;;
4208;SDS011;36320;48.860;2.380;2023-10-09T06:39:51;8.25;;;2.13;;
4208;SDS011;36320;48.860;2.380;2023-10-09T06:42:22;10.85;;;2.60;;
4208;SDS011;36320;48.860;2.380;2023-10-09T06:45:13;12.55;;;2.60;;
4208;SDS011;36320;48.860;2.380;2023-10-09T06:47:49;10.55;;;2.30;;
4208;SDS011;36320;48.860;2.380;2023-10-09T06:50:20;10.70;;;2.40;;
4208;SDS011;36320;48.860;2.380;2023-10-09T06:52:46;9.20;;;1.90;;
4208;SDS011;36320;48.860;2.380;2023-10-09T06:55:38;14.75;;;1.98;;
4208;SDS011;36320;48.860;2.380;2023-10-09T06:58:16;9.30;;;2.10;;
4208;SDS011;36320;48.860;2.380;2023-10-09T07:00:51;11.23;;;2.50;;
4208;SDS011;36320;48.860;2.380;2023-10-09T07:03:27;9.07;;;1.90;;
4208;SDS011;36320;48.860;2.380;2023-10-09T07:08:55;9.13;;;2.50;;
4208;SDS011;36320;48.860;2.380;2023-10-09T07:11:37;7.97;;;1.70;;
4208;SDS011;36320;48.860;2.380;2023-10-09T07:14:16;19.37;;;2.50;;
4208;SDS011;36320;48.860;2.380;2023-10-09T07:16:56;10.90;;;2.20;;
4208;SDS011;36320;48.860;2.380;2023-10-09T07:19:22;8.15;;;1.92;;
4208;SDS011;36320;48.860;2.380;2023-10-09T07:22:12;17.55;;;2.80;;
4208;SDS011;36320;48.860;2.380;2023-10-09T07:24:50;14.65;;;2.35;;
4208;SDS011;36320;48.860;2.380;2023-10-09T07:30:14;19.35;;;2.80;;
4208;SDS011;36320;48.860;2.380;2023-10-09T07:33:04;19.75;;;4.25;;
4208;SDS011;36320;48.860;2.380;2023-10-09T07:38:19;11.20;;;2.85;;
4208;SDS011;36320;48.860;2.380;2023-10-09T07:41:00;13.00;;;3.53;;
4208;SDS011;36320;48.860;2.380;2023-10-09T07:43:31;11.93;;;3.20;;
4208;SDS011;36320;48.860;2.380;2023-10-09T07:46:15;13.10;;;2.85;;
4208;SDS011;36320;48.860;2.380;2023-10-09T07:49:04;12.32;;;2.90;;
4208;SDS011;36320;48.860;2.380;2023-10-09T07:51:37;10.52;;;2.60;;
4208;SDS011;36320;48.860;2.380;2023-10-09T07:54:08;13.27;;;2.90;;
4208;SDS011;36320;48.860;2.380;2023-10-09T07:56:34;9.30;;;2.60;;
4208;SDS011;36320;48.860;2.380;2023-10-09T07:59:06;13.70;;;3.17;;
4208;SDS011;36320;48.860;2.380;2023-10-09T08:04:20;11.52;;;2.90;;
4208;SDS011;36320;48.860;2.380;2023-10-09T08:07:13;13.15;;;4.20;;
4208;SDS011;36320;48.860;2.380;2023-10-09T08:10:07;13.20;;;2.70;;
4208;SDS011;36320;48.860;2.380;2023-10-09T08:12:43;25.17;;;2.92;;
4208;SDS011;36320;48.860;2.380;2023-10-09T08:15:24;11.73;;;3.50;;
4208;SDS011;36320;48.860;2.380;2023-10-09T08:18:18;12.75;;;2.33;;
4208;SDS011;36320;48.860;2.380;2023-10-09T08:20:52;10.23;;;3.23;;
4208;SDS011;36320;48.860;2.380;2023-10-09T08:23:25;11.25;;;2.75;;
4208;SDS011;36320;48.860;2.380;2023-10-09T08:26:16;13.23;;;2.70;;
4208;SDS011;36320;48.860;2.380;2023-10-09T08:28:54;15.70;;;2.70;;
4208;SDS011;36320;48.860;2.380;2023-10-09T08:31:40;11.88;;;3.42;;
4208;SDS011;36320;48.860;2.380;2023-10-09T08:34:13;16.40;;;3.72;;
4208;SDS011;36320;48.860;2.380;2023-10-09T08:36:51;10.40;;;2.70;;
4208;SDS011;36320;48.860;2.380;2023-10-09T08:39:18;22.07;;;3.20;;
4208;SDS011;36320;48.860;2.380;2023-10-09T08:41:55;15.88;;;3.70;;
4208;SDS011;36320;48.860;2.380;2023-10-09T08:44:26;18.80;;;3.40;;
4208;SDS011;36320;48.860;2.380;2023-10-09T08:46:54;11.40;;;2.60;;
4208;SDS011;36320;48.860;2.380;2023-10-09T08:49:29;13.27;;;3.50;;
4208;SDS011;36320;48.860;2.380;2023-10-09T08:51:59;14.73;;;3.60;;
4208;SDS011;36320;48.860;2.380;2023-10-09T08:54:29;13.30;;;2.92;;
4208;SDS011;36320;48.860;2.380;2023-10-09T08:56:58;11.63;;;2.53;;
4208;SDS011;36320;48.860;2.380;2023-10-09T08:59:29;10.37;;;3.20;;
4208;SDS011;36320;48.860;2.380;2023-10-09T09:01:55;12.88;;;2.60;;
4208;SDS011;36320;48.860;2.380;2023-10-09T09:04:37;11.32;;;3.00;;
4208;SDS011;36320;48.860;2.380;2023-10-09T09:07:05;15.25;;;2.80;;
4208;SDS011;36320;48.860;2.380;2023-10-09T09:09:56;10.80;;;3.35;;
4208;SDS011;36320;48.860;2.380;2023-10-09T09:12:46;15.15;;;2.75;;
4208;SDS011;36320;48.860;2.380;2023-10-09T09:15:18;11.05;;;2.47;;
4208;SDS011;36320;48.860;2.380;2023-10-09T09:17:45;10.10;;;2.45;;
4208;SDS011;36320;48.860;2.380;2023-10-09T09:20:32;10.85;;;2.58;;
4208;SDS011;36320;48.860;2.380;2023-10-09T09:23:10;23.30;;;3.00;;
4208;SDS011;36320;48.860;2.380;2023-10-09T09:25:47;19.00;;;3.20;;
4208;SDS011;36320;48.860;2.380;2023-10-09T09:28:16;14.40;;;4.45;;
4208;SDS011;36320;48.860;2.380;2023-10-09T09:30:47;11.68;;;3.10;;
4208;SDS011;36320;48.860;2.380;2023-10-09T09:33:19;11.90;;;2.47;;
4208;SDS011;36320;48.860;2.380;2023-10-09T09:36:05;14.88;;;2.33;;
4208;SDS011;36320;48.860;2.380;2023-10-09T09:38:33;14.93;;;2.60;;
4208;SDS011;36320;48.860;2.380;2023-10-09T09:41:13;14.05;;;2.80;;
4208;SDS011;36320;48.860;2.380;2023-10-09T09:43:50;10.45;;;2.33;;
4208;SDS011;36320;48.860;2.380;2023-10-09T09:46:18;15.18;;;2.38;;
4208;SDS011;36320;48.860;2.380;2023-10-09T09:48:46;12.98;;;2.45;;
4208;SDS011;36320;48.860;2.380;2023-10-09T09:51:13;9.10;;;2.30;;
4208;SDS011;36320;48.860;2.380;2023-10-09T09:53:42;12.98;;;2.80;;
4208;SDS011;36320;48.860;2.380;2023-10-09T09:56:12;10.73;;;2.30;;
4208;SDS011;36320;48.860;2.380;2023-10-09T09:58:45;15.77;;;2.77;;
4208;SDS011;36320;48.860;2.380;2023-10-09T10:01:18;12.07;;;2.20;;
4208;SDS011;36320;48.860;2.380;2023-10-09T10:04:03;9.50;;;2.10;;
4208;SDS011;36320;48.860;2.380;2023-10-09T10:06:39;11.02;;;2.70;;
4208;SDS011;36320;48.860;2.380;2023-10-09T10:09:09;10.63;;;2.35;;
4208;SDS011;36320;48.860;2.380;2023-10-09T10:11:43;19.70;;;3.42;;
4208;SDS011;36320;48.860;2.380;2023-10-09T10:14:14;11.67;;;2.70;;
4208;SDS011;36320;48.860;2.380;2023-10-09T10:17:06;11.63;;;3.13;;
4208;SDS011;36320;48.860;2.380;2023-10-09T10:22:42;17.52;;;2.90;;
4208;SDS011;36320;48.860;2.380;2023-10-09T10:28:21;13.60;;;2.65;;
4208;SDS011;36320;48.860;2.380;2023-10-09T10:31:00;19.48;;;3.50;;
4208;SDS011;36320;48.860;2.380;2023-10-09T10:36:18;10.90;;;3.03;;
4208;SDS011;36320;48.860;2.380;2023-10-09T10:39:10;11.57;;;2.35;;
4208;SDS011;36320;48.860;2.380;2023-10-09T10:41:36;11.40;;;2.40;;
4208;SDS011;36320;48.860;2.380;2023-10-09T10:44:32;17.53;;;3.07;;
4208;SDS011;36320;48.860;2.380;2023-10-09T10:47:10;9.75;;;2.40;;
4208;SDS011;36320;48.860;2.380;2023-10-09T10:50:02;8.10;;;2.20;;
4208;SDS011;36320;48.860;2.380;2023-10-09T10:53:11;8.97;;;2.10;;
4208;SDS011;36320;48.860;2.380;2023-10-09T10:55:57;18.15;;;3.40;;
4208;SDS011;36320;48.860;2.380;2023-10-09T10:58:54;11.70;;;2.05;;
4208;SDS011;36320;48.860;2.380;2023-10-09T11:01:35;9.07;;;2.00;;
4208;SDS011;36320;48.860;2.380;2023-10-09T11:04:20;8.93;;;1.90;;
4208;SDS011;36320;48.860;2.380;2023-10-09T11:07:01;7.35;;;1.50;;
4208;SDS011;36320;48.860;2.380;2023-10-09T11:09:51;8.10;;;1.60;;
4208;SDS011;36320;48.860;2.380;2023-10-09T11:12:30;9.18;;;2.22;;
4208;SDS011;36320;48.860;2.380;2023-10-09T11:15:15;9.00;;;1.80;;
4208;SDS011;36320;48.860;2.380;2023-10-09T11:20:45;11.68;;;2.67;;
4208;SDS011;36320;48.860;2.380;2023-10-09T11:23:27;12.45;;;2.30;;
4208;SDS011;36320;48.860;2.380;2023-10-09T11:25:59;7.70;;;1.67;;
4208;SDS011;36320;48.860;2.380;2023-10-09T11:29:06;11.05;;;1.77;;
4208;SDS011;36320;48.860;2.380;2023-10-09T11:34:32;17.77;;;2.58;;
4208;SDS011;36320;48.860;2.380;2023-10-09T11:37:20;7.70;;;1.52;;
4208;SDS011;36320;48.860;2.380;2023-10-09T11:39:58;9.00;;;2.00;;
4208;SDS011;36320;48.860;2.380;2023-10-09T11:42:31;7.15;;;1.42;;
4208;SDS011;36320;48.860;2.380;2023-10-09T11:45:21;12.45;;;2.30;;
4208;SDS011;36320;48.860;2.380;2023-10-09T11:47:52;10.63;;;1.70;;
4208;SDS011;36320;48.860;2.380;2023-10-09T11:53:16;8.15;;;1.63;;
4208;SDS011;36320;48.860;2.380;2023-10-09T11:55:49;11.90;;;2.30;;
4208;SDS011;36320;48.860;2.380;2023-10-09T11:58:18;17.88;;;2.40;;
4208;SDS011;36320;48.860;2.380;2023-10-09T12:00:48;9.70;;;1.70;;
4208;SDS011;36320;48.860;2.380;2023-10-09T12:03:28;10.48;;;2.55;;
4208;SDS011;36320;48.860;2.380;2023-10-09T12:05:57;11.52;;;2.00;;
4208;SDS011;36320;48.860;2.380;2023-10-09T12:08:33;11.10;;;1.80;;
4208;SDS011;36320;48.860;2.380;2023-10-09T12:11:01;12.02;;;2.20;;
4208;SDS011;36320;48.860;2.380;2023-10-09T12:13:29;10.55;;;2.10;;
4208;SDS011;36320;48.860;2.380;2023-10-09T12:15:57;8.20;;;1.80;;
4208;SDS011;36320;48.860;2.380;2023-10-09T12:18:23;9.50;;;2.10;;
4208;SDS011;36320;48.860;2.380;2023-10-09T12:20:49;9.82;;;1.83;;
4208;SDS011;36320;48.860;2.380;2023-10-09T12:23:16;12.77;;;2.20;;
4208;SDS011;36320;48.860;2.380;2023-10-09T12:25:45;12.23;;;2.30;;
4208;SDS011;36320;48.860;2.380;2023-10-09T12:28:15;13.15;;;2.70;;
4208;SDS011;36320;48.860;2.380;2023-10-09T12:30:45;12.30;;;2.58;;
4208;SDS011;36320;48.860;2.380;2023-10-09T12:33:18;8.20;;;1.70;;
4208;SDS011;36320;48.860;2.380;2023-10-09T12:35:54;9.20;;;2.00;;
4208;SDS011;36320;48.860;2.380;2023-10-09T12:38:26;25.13;;;1.90;;
4208;SDS011;36320;48.860;2.380;2023-10-09T12:41:05;9.37;;;2.07;;
4208;SDS011;36320;48.860;2.380;2023-10-09T12:43:50;10.68;;;2.00;;
4208;SDS011;36320;48.860;2.380;2023-10-09T12:46:17;9.85;;;1.80;;
4208;SDS011;36320;48.860;2.380;2023-10-09T12:48:51;11.90;;;2.20;;
4208;SDS011;36320;48.860;2.380;2023-10-09T12:51:19;10.93;;;2.92;;
4208;SDS011;36320;48.860;2.380;2023-10-09T12:53:46;13.15;;;2.47;;
4208;SDS011;36320;48.860;2.380;2023-10-09T12:56:21;15.70;;;2.20;;
4208;SDS011;36320;48.860;2.380;2023-10-09T12:59:02;8.52;;;1.90;;
4208;SDS011;36320;48.860;2.380;2023-10-09T13:01:32;12.00;;;2.20;;
4208;SDS011;36320;48.860;2.380;2023-10-09T13:04:14;11.63;;;1.88;;
4208;SDS011;36320;48.860;2.380;2023-10-09T13:06:44;10.15;;;2.10;;
4208;SDS011;36320;48.860;2.380;2023-10-09T13:09:15;8.50;;;1.88;;
4208;SDS011;36320;48.860;2.380;2023-10-09T13:11:59;14.30;;;2.10;;
4208;SDS011;36320;48.860;2.380;2023-10-09T13:14:27;13.80;;;1.98;;
4208;SDS011;36320;48.860;2.380;2023-10-09T13:16:58;9.15;;;2.42;;
4208;SDS011;36320;48.860;2.380;2023-10-09T13:19:25;9.43;;;1.90;;
4208;SDS011;36320;48.860;2.380;2023-10-09T13:21:51;8.80;;;1.93;;
4208;SDS011;36320;48.860;2.380;2023-10-09T13:24:17;10.07;;;2.30;;
4208;SDS011;36320;48.860;2.380;2023-10-09T13:26:46;10.90;;;2.10;;
4208;SDS011;36320;48.860;2.380;2023-10-09T13:29:16;8.63;;;2.00;;
4208;SDS011;36320;48.860;2.380;2023-10-09T13:31:48;14.73;;;2.17;;
4208;SDS011;36320;48.860;2.380;2023-10-09T13:34:18;9.35;;;1.83;;
4208;SDS011;36320;48.860;2.380;2023-10-09T13:36:44;9.70;;;2.30;;
4208;SDS011;36320;48.860;2.380;2023-10-09T13:39:19;8.18;;;1.90;;
4208;SDS011;36320;48.860;2.380;2023-10-09T13:41:55;10.88;;;2.20;;
4208;SDS011;36320;48.860;2.380;2023-10-09T13:44:32;9.40;;;2.20;;
4208;SDS011;36320;48.860;2.380;2023-10-09T13:47:04;9.43;;;2.30;;
4208;SDS011;36320;48.860;2.380;2023-10-09T13:49:33;10.50;;;2.40;;
4208;SDS011;36320;48.860;2.380;2023-10-09T13:52:03;9.50;;;2.30;;
4208;SDS011;36320;48.860;2.380;2023-10-09T13:54:31;8.93;;;1.90;;
4208;SDS011;36320;48.860;2.380;2023-10-09T13:56:57;11.05;;;2.42;;
4208;SDS011;36320;48.860;2.380;2023-10-09T13:59:29;9.98;;;2.25;;
4208;SDS011;36320;48.860;2.380;2023-10-09T14:01:55;11.30;;;2.55;;
4208;SDS011;36320;48.860;2.380;2023-10-09T14:04:22;9.50;;;2.20;;
4208;SDS011;36320;48.860;2.380;2023-10-09T14:06:48;10.20;;;2.10;;
4208;SDS011;36320;48.860;2.380;2023-10-09T14:09:22;9.00;;;2.10;;
4208;SDS011;36320;48.860;2.380;2023-10-09T14:12:03;13.65;;;2.00;;
4208;SDS011;36320;48.860;2.380;2023-10-09T14:14:38;9.40;;;2.10;;
4208;SDS011;36320;48.860;2.380;2023-10-09T14:17:19;11.40;;;3.42;;
4208;SDS011;36320;48.860;2.380;2023-10-09T14:19:56;10.43;;;2.50;;
4208;SDS011;36320;48.860;2.380;2023-10-09T14:22:52;10.80;;;2.00;;
4208;SDS011;36320;48.860;2.380;2023-10-09T14:25:18;12.17;;;2.40;;
4208;SDS011;36320;48.860;2.380;2023-10-09T14:27:49;18.80;;;1.80;;
4208;SDS011;36320;48.860;2.380;2023-10-09T14:30:18;8.30;;;1.80;;
4208;SDS011;36320;48.860;2.380;2023-10-09T14:32:56;10.52;;;2.40;;
4208;SDS011;36320;48.860;2.380;2023-10-09T14:35:24;12.63;;;2.20;;
4208;SDS011;36320;48.860;2.380;2023-10-09T14:37:55;11.73;;;2.10;;
4208;SDS011;36320;48.860;2.380;2023-10-09T14:40:22;15.95;;;2.70;;
4208;SDS011;36320;48.860;2.380;2023-10-09T14:43:00;11.40;;;2.30;;
4208;SDS011;36320;48.860;2.380;2023-10-09T14:45:26;7.50;;;1.93;;
4208;SDS011;36320;48.860;2.380;2023-10-09T14:47:52;10.85;;;1.90;;
4208;SDS011;36320;48.860;2.380;2023-10-09T14:50:20;8.18;;;1.90;;
4208;SDS011;36320;48.860;2.380;2023-10-09T14:52:47;9.43;;;1.50;;
4208;SDS011;36320;48.860;2.380;2023-10-09T14:55:18;10.57;;;1.90;;
4208;SDS011;36320;48.860;2.380;2023-10-09T14:57:53;10.68;;;2.20;;
4208;SDS011;36320;48.860;2.380;2023-10-09T15:00:20;9.05;;;2.20;;
4208;SDS011;36320;48.860;2.380;2023-10-09T15:02:49;9.00;;;1.92;;
4208;SDS011;36320;48.860;2.380;2023-10-09T15:05:16;8.57;;;1.97;;
4208;SDS011;36320;48.860;2.380;2023-10-09T15:07:48;13.48;;;1.90;;
4208;SDS011;36320;48.860;2.380;2023-10-09T15:10:15;8.00;;;2.10;;
4208;SDS011;36320;48.860;2.380;2023-10-09T15:12:41;9.30;;;1.90;;
4208;SDS011;36320;48.860;2.380;2023-10-09T15:15:08;13.20;;;2.30;;
4208;SDS011;36320;48.860;2.380;2023-10-09T15:17:42;7.50;;;1.70;;
4208;SDS011;36320;48.860;2.380;2023-10-09T15:20:14;18.77;;;2.35;;
4208;SDS011;36320;48.860;2.380;2023-10-09T15:22:43;11.52;;;1.92;;
4208;SDS011;36320;48.860;2.380;2023-10-09T15:25:11;8.15;;;1.90;;
4208;SDS011;36320;48.860;2.380;2023-10-09T15:27:42;8.05;;;1.80;;
4208;SDS011;36320;48.860;2.380;2023-10-09T15:30:08;10.30;;;2.20;;
4208;SDS011;36320;48.860;2.380;2023-10-09T15:32:39;8.80;;;1.70;;
4208;SDS011;36320;48.860;2.380;2023-10-09T15:35:07;9.50;;;2.22;;
4208;SDS011;36320;48.860;2.380;2023-10-09T15:37:37;16.10;;;3.08;;
4208;SDS011;36320;48.860;2.380;2023-10-09T15:40:08;9.88;;;1.80;;
4208;SDS011;36320;48.860;2.380;2023-10-09T15:42:41;12.48;;;2.08;;
4208;SDS011;36320;48.860;2.380;2023-10-09T15:45:08;10.02;;;2.20;;
4208;SDS011;36320;48.860;2.380;2023-10-09T15:47:34;10.32;;;2.00;;
4208;SDS011;36320;48.860;2.380;2023-10-09T15:50:02;11.00;;;1.98;;
4208;SDS011;36320;48.860;2.380;2023-10-09T15:52:28;14.52;;;2.30;;
4208;SDS011;36320;48.860;2.380;2023-10-09T15:54:54;9.98;;;1.90;;
4208;SDS011;36320;48.860;2.380;2023-10-09T15:57:20;8.75;;;1.88;;
4208;SDS011;36320;48.860;2.380;2023-10-09T15:59:49;14.77;;;1.90;;
4208;SDS011;36320;48.860;2.380;2023-10-09T16:02:15;12.00;;;2.08;;
4208;SDS011;36320;48.860;2.380;2023-10-09T16:04:42;8.27;;;1.75;;
4208;SDS011;36320;48.860;2.380;2023-10-09T16:07:09;8.13;;;1.70;;
4208;SDS011;36320;48.860;2.380;2023-10-09T16:09:36;11.45;;;2.20;;
4208;SDS011;36320;48.860;2.380;2023-10-09T16:12:06;10.27;;;2.40;;
4208;SDS011;36320;48.860;2.380;2023-10-09T16:14:35;10.50;;;2.00;;
4208;SDS011;36320;48.860;2.380;2023-10-09T16:17:01;8.63;;;1.90;;